createdAt,value
2017-12-27T00:00:43.991Z,6.22
2017-12-27T00:01:43.934Z,6.16
2017-12-27T00:02:43.905Z,6.16
2017-12-27T00:03:43.855Z,6.12
2017-12-27T00:04:43.815Z,6.14
2017-12-27T00:05:43.778Z,6.22
2017-12-27T00:06:43.736Z,6.19
2017-12-27T00:07:43.723Z,6.08
2017-12-27T00:08:43.668Z,6.09
2017-12-27T00:09:43.632Z,6.11
2017-12-27T00:10:43.583Z,6.16
2017-12-27T00:11:43.578Z,6.17
2017-12-27T00:12:43.507Z,6.19
2017-12-27T00:13:43.462Z,6.09
2017-12-27T00:14:43.424Z,6.22
2017-12-27T00:15:43.423Z,6.17
2017-12-27T00:16:43.346Z,6.22
2017-12-27T00:17:43.307Z,6.22
2017-12-27T00:18:43.272Z,6.22
2017-12-27T00:19:43.230Z,6.28
2017-12-27T00:20:43.205Z,6.26
2017-12-27T00:21:43.150Z,6.16
2017-12-27T00:22:43.117Z,6.08
2017-12-27T00:23:43.071Z,6.09
2017-12-27T00:24:43.031Z,6.17
2017-12-27T00:25:43.023Z,6.22
2017-12-27T00:26:42.954Z,6.20
2017-12-27T00:27:42.915Z,6.09
2017-12-27T00:28:42.876Z,6.28
2017-12-27T00:29:42.835Z,6.19
2017-12-27T00:30:42.854Z,6.19
2017-12-27T00:31:42.761Z,6.16
2017-12-27T00:32:42.718Z,6.09
2017-12-27T00:33:42.680Z,6.11
2017-12-27T00:34:42.642Z,6.16
2017-12-27T00:35:42.602Z,6.11
2017-12-27T00:36:42.564Z,6.12
2017-12-27T00:37:42.522Z,6.14
2017-12-27T00:38:42.488Z,6.16
2017-12-27T00:39:42.446Z,6.17
2017-12-27T00:40:42.428Z,6.17
2017-12-27T00:41:42.370Z,6.19
2017-12-27T00:42:42.329Z,6.17
2017-12-27T00:43:42.297Z,6.09
2017-12-27T00:44:42.252Z,6.12
2017-12-27T00:45:42.210Z,6.07
2017-12-27T00:46:42.173Z,6.07
2017-12-27T00:47:42.134Z,6.01
2017-12-27T00:48:42.093Z,5.97
2017-12-27T00:49:42.056Z,5.98
2017-12-27T00:50:42.026Z,6.01
2017-12-27T00:51:41.979Z,5.98
2017-12-27T00:52:41.938Z,5.98
2017-12-27T00:53:41.925Z,5.94
2017-12-27T00:54:41.887Z,5.94
2017-12-27T00:55:41.818Z,6.01
2017-12-27T00:56:41.781Z,6.01
2017-12-27T00:57:41.739Z,5.94
2017-12-27T00:58:42.460Z,5.98
2017-12-27T00:59:41.669Z,5.97
2017-12-27T01:00:41.647Z,5.99
2017-12-27T01:01:41.595Z,5.98
2017-12-27T01:02:41.564Z,5.97
2017-12-27T01:03:41.509Z,5.90
2017-12-27T01:04:41.468Z,5.97
2017-12-27T01:05:41.427Z,5.94
2017-12-27T01:06:41.411Z,5.86
2017-12-27T01:07:41.349Z,5.83
2017-12-27T01:08:41.309Z,5.91
2017-12-27T01:09:41.270Z,5.91
2017-12-27T01:10:41.271Z,5.87
2017-12-27T01:11:41.191Z,5.87
2017-12-27T01:12:41.154Z,5.86
2017-12-27T01:13:41.113Z,5.82
2017-12-27T01:14:41.079Z,5.83
2017-12-27T01:15:41.088Z,5.84
2017-12-27T01:16:40.997Z,5.83
2017-12-27T01:17:40.957Z,5.80
2017-12-27T01:18:40.921Z,5.83
2017-12-27T01:19:40.878Z,5.80
2017-12-27T01:20:40.840Z,5.83
2017-12-27T01:21:40.836Z,5.82
2017-12-27T01:22:40.759Z,5.76
2017-12-27T01:23:40.724Z,5.82
2017-12-27T01:24:40.687Z,5.80
2017-12-27T01:25:40.652Z,5.84
2017-12-27T01:26:40.621Z,5.83
2017-12-27T01:27:40.582Z,5.79
2017-12-27T01:28:40.525Z,5.76
2017-12-27T01:29:40.496Z,5.80
2017-12-27T01:30:40.444Z,5.84
2017-12-27T01:31:40.425Z,5.83
2017-12-27T01:32:40.373Z,5.83
2017-12-27T01:33:40.330Z,5.83
2017-12-27T01:34:40.297Z,5.82
2017-12-27T01:35:40.280Z,5.87
2017-12-27T01:36:40.217Z,5.83
2017-12-27T01:37:40.170Z,5.79
2017-12-27T01:38:40.131Z,5.76
2017-12-27T01:39:40.099Z,5.73
2017-12-27T01:40:40.066Z,5.76
2017-12-27T01:41:40.016Z,5.76
2017-12-27T01:42:39.975Z,5.79
2017-12-27T01:43:39.939Z,5.79
2017-12-27T01:44:39.899Z,5.76
2017-12-27T01:45:39.856Z,5.76
2017-12-27T01:46:39.817Z,5.73
2017-12-27T01:47:39.781Z,5.76
2017-12-27T01:48:39.737Z,5.79
2017-12-27T01:49:39.696Z,5.69
2017-12-27T01:50:39.659Z,5.76
2017-12-27T01:51:39.619Z,5.80
2017-12-27T01:52:39.598Z,5.76
2017-12-27T01:53:39.546Z,5.82
2017-12-27T01:54:39.502Z,5.73
2017-12-27T01:55:39.462Z,5.80
2017-12-27T01:56:40.034Z,5.82
2017-12-27T01:57:40.031Z,5.82
2017-12-27T01:58:39.378Z,5.84
2017-12-27T01:59:39.307Z,5.84
2017-12-27T02:00:39.286Z,6.02
2017-12-27T02:01:39.258Z,5.91
2017-12-27T02:02:39.194Z,5.87
2017-12-27T02:03:39.146Z,5.90
2017-12-27T02:04:39.122Z,5.98
2017-12-27T02:05:39.093Z,5.93
2017-12-27T02:06:39.041Z,5.99
2017-12-27T02:07:39.012Z,6.01
2017-12-27T02:08:39.011Z,5.98
2017-12-27T02:09:38.913Z,5.94
2017-12-27T02:10:38.895Z,5.97
2017-12-27T02:11:38.854Z,5.98
2017-12-27T02:12:38.838Z,6.05
2017-12-27T02:13:38.762Z,5.98
2017-12-27T02:14:38.737Z,6.09
2017-12-27T02:15:38.709Z,6.07
2017-12-27T02:16:38.642Z,6.07
2017-12-27T02:17:38.616Z,6.11
2017-12-27T02:18:38.577Z,6.07
2017-12-27T02:19:38.518Z,6.07
2017-12-27T02:20:38.479Z,6.05
2017-12-27T02:21:38.446Z,6.05
2017-12-27T02:22:38.404Z,6.02
2017-12-27T02:23:38.367Z,6.08
2017-12-27T02:24:38.323Z,6.08
2017-12-27T02:25:38.294Z,6.04
2017-12-27T02:26:38.249Z,6.05
2017-12-27T02:27:38.207Z,6.05
2017-12-27T02:28:38.210Z,6.09
2017-12-27T02:29:38.133Z,6.09
2017-12-27T02:30:38.089Z,6.02
2017-12-27T02:31:38.063Z,6.12
2017-12-27T02:32:38.009Z,5.94
2017-12-27T02:33:37.970Z,5.97
2017-12-27T02:34:37.941Z,5.98
2017-12-27T02:35:37.907Z,5.91
2017-12-27T02:36:37.927Z,5.86
2017-12-27T02:37:37.812Z,6.01
2017-12-27T02:38:37.804Z,5.86
2017-12-27T02:39:37.756Z,5.99
2017-12-27T02:40:37.745Z,6.01
2017-12-27T02:41:37.742Z,6.01
2017-12-27T02:42:37.660Z,5.98
2017-12-27T02:43:37.634Z,6.02
2017-12-27T02:44:37.690Z,5.99
2017-12-27T02:45:37.502Z,5.87
2017-12-27T02:46:37.499Z,5.87
2017-12-27T02:47:37.473Z,5.97
2017-12-27T02:48:37.414Z,5.98
2017-12-27T02:49:37.395Z,5.89
2017-12-27T02:50:37.316Z,5.97
2017-12-27T02:51:37.302Z,5.99
2017-12-27T02:52:37.249Z,5.94
2017-12-27T02:53:37.199Z,5.97
2017-12-27T02:54:37.193Z,5.99
2017-12-27T02:55:37.128Z,5.98
2017-12-27T02:56:37.137Z,6.02
2017-12-27T02:57:37.043Z,5.99
2017-12-27T02:58:37.005Z,6.07
2017-12-27T02:59:36.964Z,6.08
2017-12-27T03:00:36.926Z,6.09
2017-12-27T03:01:36.946Z,6.12
2017-12-27T03:02:36.839Z,5.99
2017-12-27T03:03:36.818Z,6.07
2017-12-27T03:04:36.754Z,6.11
2017-12-27T03:05:36.717Z,6.22
2017-12-27T03:06:36.719Z,6.14
2017-12-27T03:07:36.640Z,6.19
2017-12-27T03:08:36.677Z,6.08
2017-12-27T03:09:36.572Z,6.17
2017-12-27T03:10:36.523Z,6.22
2017-12-27T03:11:36.490Z,6.24
2017-12-27T03:12:36.519Z,6.22
2017-12-27T03:13:36.401Z,6.24
2017-12-27T03:14:36.390Z,6.28
2017-12-27T03:15:36.354Z,6.26
2017-12-27T03:16:36.324Z,6.22
2017-12-27T03:17:36.276Z,6.28
2017-12-27T03:18:36.250Z,6.20
2017-12-27T03:19:36.168Z,6.24
2017-12-27T03:20:36.178Z,6.20
2017-12-27T03:21:36.111Z,6.14
2017-12-27T03:22:36.050Z,6.14
2017-12-27T03:23:36.015Z,6.14
2017-12-27T03:24:35.971Z,6.14
2017-12-27T03:25:35.933Z,6.11
2017-12-27T03:26:35.961Z,6.17
2017-12-27T03:27:35.880Z,6.09
2017-12-27T03:28:35.827Z,6.11
2017-12-27T03:29:35.827Z,6.17
2017-12-27T03:30:35.749Z,6.05
2017-12-27T03:31:35.706Z,6.02
2017-12-27T03:32:35.700Z,6.08
2017-12-27T03:33:35.666Z,6.12
2017-12-27T03:34:35.611Z,6.09
2017-12-27T03:35:35.563Z,6.07
2017-12-27T03:36:35.513Z,6.05
2017-12-27T03:37:35.473Z,5.98
2017-12-27T03:38:35.425Z,5.98
2017-12-27T03:39:35.400Z,5.94
2017-12-27T03:40:35.351Z,5.97
2017-12-27T03:41:35.355Z,5.91
2017-12-27T03:42:35.292Z,5.99
2017-12-27T03:43:35.230Z,5.99
2017-12-27T03:44:35.217Z,5.99
2017-12-27T03:45:35.154Z,6.04
2017-12-27T03:46:35.137Z,6.09
2017-12-27T03:47:35.077Z,6.09
2017-12-27T03:48:35.044Z,6.08
2017-12-27T03:49:35.046Z,6.09
2017-12-27T03:50:34.956Z,6.08
2017-12-27T03:51:34.947Z,6.09
2017-12-27T03:52:34.893Z,6.12
2017-12-27T03:53:34.837Z,6.05
2017-12-27T03:54:34.816Z,6.05
2017-12-27T03:55:34.778Z,6.08
2017-12-27T03:56:34.758Z,6.12
2017-12-27T03:57:34.702Z,6.07
2017-12-27T03:58:34.653Z,6.05
2017-12-27T03:59:34.642Z,6.05
2017-12-27T04:00:34.580Z,6.14
2017-12-27T04:01:34.562Z,6.12
2017-12-27T04:02:34.502Z,6.09
2017-12-27T04:03:34.460Z,6.09
2017-12-27T04:04:34.403Z,6.08
2017-12-27T04:05:34.390Z,6.04
2017-12-27T04:06:34.399Z,6.05
2017-12-27T04:07:34.300Z,6.08
2017-12-27T04:08:34.268Z,6.05
2017-12-27T04:09:34.294Z,6.07
2017-12-27T04:10:34.528Z,6.02
2017-12-27T04:11:34.130Z,6.11
2017-12-27T04:12:34.094Z,6.09
2017-12-27T04:13:34.058Z,6.11
2017-12-27T04:14:34.025Z,6.09
2017-12-27T04:15:33.975Z,6.17
2017-12-27T04:16:33.941Z,6.16
2017-12-27T04:17:33.896Z,6.17
2017-12-27T04:18:33.877Z,6.19
2017-12-27T04:19:33.841Z,6.08
2017-12-27T04:20:33.784Z,6.12
2017-12-27T04:21:33.746Z,6.04
2017-12-27T04:22:33.821Z,6.12
2017-12-27T04:23:33.660Z,6.12
2017-12-27T04:24:33.643Z,6.12
2017-12-27T04:25:33.625Z,6.28
2017-12-27T04:26:33.555Z,6.17
2017-12-27T04:27:33.557Z,6.20
2017-12-27T04:28:33.532Z,6.22
2017-12-27T04:29:33.443Z,6.26
2017-12-27T04:30:33.438Z,6.26
2017-12-27T04:31:33.366Z,6.28
2017-12-27T04:32:33.339Z,6.27
2017-12-27T04:33:33.280Z,6.22
2017-12-27T04:34:33.268Z,6.24
2017-12-27T04:35:33.224Z,6.24
2017-12-27T04:36:33.163Z,6.35
2017-12-27T04:37:33.110Z,6.30
2017-12-27T04:38:33.096Z,6.30
2017-12-27T04:39:33.038Z,6.22
2017-12-27T04:40:32.995Z,6.31
2017-12-27T04:41:32.956Z,6.31
2017-12-27T04:42:32.914Z,6.30
2017-12-27T04:43:32.898Z,6.33
2017-12-27T04:44:32.862Z,6.26
2017-12-27T04:45:32.797Z,6.26
2017-12-27T04:46:32.793Z,6.19
2017-12-27T04:47:32.802Z,6.22
2017-12-27T04:48:32.684Z,6.16
2017-12-27T04:49:32.665Z,6.16
2017-12-27T04:50:32.613Z,6.22
2017-12-27T04:51:32.641Z,6.24
2017-12-27T04:52:32.535Z,6.24
2017-12-27T04:53:32.490Z,6.26
2017-12-27T04:54:32.704Z,6.27
2017-12-27T04:55:32.422Z,6.20
2017-12-27T04:56:32.417Z,6.17
2017-12-27T04:57:32.333Z,6.17
2017-12-27T04:58:32.743Z,6.22
2017-12-27T04:59:32.260Z,6.24
2017-12-27T05:00:32.213Z,6.19
2017-12-27T05:01:32.178Z,6.05
2017-12-27T05:02:32.140Z,6.12
2017-12-27T05:03:32.149Z,6.16
2017-12-27T05:04:32.063Z,6.17
2017-12-27T05:05:32.036Z,6.11
2017-12-27T05:06:31.989Z,6.20
2017-12-27T05:07:31.946Z,6.16
2017-12-27T05:08:31.899Z,6.08
2017-12-27T05:09:31.868Z,6.11
2017-12-27T05:10:31.819Z,6.12
2017-12-27T05:11:31.823Z,6.12
2017-12-27T05:12:31.760Z,6.17
2017-12-27T05:13:31.729Z,6.11
2017-12-27T05:14:31.694Z,6.08
2017-12-27T05:15:31.646Z,6.24
2017-12-27T05:16:31.585Z,6.20
2017-12-27T05:17:31.593Z,6.20
2017-12-27T05:18:31.581Z,6.17
2017-12-27T05:19:31.470Z,6.17
2017-12-27T05:20:31.455Z,6.22
2017-12-27T05:21:31.391Z,6.24
2017-12-27T05:22:31.352Z,6.16
2017-12-27T05:23:31.326Z,6.14
2017-12-27T05:24:31.284Z,6.19
2017-12-27T05:25:31.290Z,6.17
2017-12-27T05:26:31.204Z,6.17
2017-12-27T05:27:31.155Z,6.19
2017-12-27T05:28:31.117Z,6.17
2017-12-27T05:29:31.081Z,6.12
2017-12-27T05:30:31.046Z,6.24
2017-12-27T05:31:31.072Z,6.20
2017-12-27T05:32:30.970Z,6.17
2017-12-27T05:33:30.920Z,6.08
2017-12-27T05:34:30.881Z,6.22
2017-12-27T05:35:30.842Z,6.24
2017-12-27T05:36:30.805Z,6.17
2017-12-27T05:37:30.776Z,6.11
2017-12-27T05:38:30.758Z,6.14
2017-12-27T05:39:30.728Z,6.14
2017-12-27T05:40:30.698Z,6.07
2017-12-27T05:41:30.669Z,6.08
2017-12-27T05:42:30.572Z,6.08
2017-12-27T05:43:30.533Z,6.02
2017-12-27T05:44:30.492Z,6.04
2017-12-27T05:45:30.501Z,6.01
2017-12-27T05:46:30.417Z,5.98
2017-12-27T05:47:30.440Z,5.98
2017-12-27T05:48:30.356Z,6.05
2017-12-27T05:49:30.296Z,5.99
2017-12-27T05:50:30.272Z,5.94
2017-12-27T05:51:30.216Z,5.99
2017-12-27T05:52:30.215Z,5.93
2017-12-27T05:53:30.176Z,5.87
2017-12-27T05:54:30.118Z,5.97
2017-12-27T05:55:30.092Z,5.99
2017-12-27T05:56:30.042Z,5.93
2017-12-27T05:57:29.980Z,6.01
2017-12-27T05:58:29.953Z,5.97
2017-12-27T05:59:29.937Z,5.97
2017-12-27T06:00:31.027Z,5.97
2017-12-27T06:01:30.523Z,5.93
2017-12-27T06:02:31.042Z,5.97
2017-12-27T06:03:29.778Z,5.94
2017-12-27T06:04:29.711Z,5.98
2017-12-27T06:05:29.712Z,5.99
2017-12-27T06:06:29.630Z,5.98
2017-12-27T06:07:29.590Z,5.99
2017-12-27T06:08:29.555Z,5.98
2017-12-27T06:09:29.513Z,6.01
2017-12-27T06:10:29.477Z,6.08
2017-12-27T06:11:29.434Z,6.04
2017-12-27T06:12:29.449Z,6.01
2017-12-27T06:13:29.359Z,5.93
2017-12-27T06:14:29.314Z,6.01
2017-12-27T06:15:29.296Z,6.09
2017-12-27T06:16:29.379Z,6.07
2017-12-27T06:17:29.201Z,6.05
2017-12-27T06:18:29.175Z,6.05
2017-12-27T06:19:29.150Z,6.08
2017-12-27T06:20:29.111Z,6.16
2017-12-27T06:21:29.046Z,6.08
2017-12-27T06:22:29.009Z,6.08
2017-12-27T06:23:28.988Z,6.05
2017-12-27T06:24:28.937Z,6.07
2017-12-27T06:25:28.951Z,6.04
2017-12-27T06:26:28.858Z,6.04
2017-12-27T06:27:28.819Z,6.02
2017-12-27T06:28:28.781Z,6.08
2017-12-27T06:29:28.746Z,6.01
2017-12-27T06:30:28.712Z,6.09
2017-12-27T06:31:28.657Z,6.07
2017-12-27T06:32:28.924Z,6.05
2017-12-27T06:33:29.116Z,6.01
2017-12-27T06:34:28.553Z,6.07
2017-12-27T06:35:28.522Z,6.08
2017-12-27T06:36:28.530Z,6.08
2017-12-27T06:37:28.444Z,6.05
2017-12-27T06:38:28.455Z,6.04
2017-12-27T06:39:28.341Z,6.09
2017-12-27T06:40:28.324Z,5.98
2017-12-27T06:41:28.289Z,5.99
2017-12-27T06:42:28.221Z,5.94
2017-12-27T06:43:28.313Z,5.97
2017-12-27T06:44:28.148Z,6.09
2017-12-27T06:45:28.103Z,6.12
2017-12-27T06:46:28.070Z,6.01
2017-12-27T06:47:28.080Z,5.97
2017-12-27T06:48:28.014Z,5.99
2017-12-27T06:49:27.973Z,6.05
2017-12-27T06:50:27.921Z,5.98
2017-12-27T06:51:27.897Z,6.01
2017-12-27T06:52:27.845Z,6.01
2017-12-27T06:53:27.793Z,6.04
2017-12-27T06:54:27.761Z,5.94
2017-12-27T06:55:27.717Z,6.01
2017-12-27T06:56:27.702Z,5.98
2017-12-27T06:57:27.682Z,6.01
2017-12-27T06:58:27.678Z,5.98
2017-12-27T06:59:27.561Z,5.97
2017-12-27T07:00:27.512Z,5.98
2017-12-27T07:01:27.473Z,5.97
2017-12-27T07:02:27.434Z,6.01
2017-12-27T07:03:27.394Z,5.98
2017-12-27T07:04:27.372Z,6.04
2017-12-27T07:05:27.313Z,5.94
2017-12-27T07:06:27.276Z,5.97
2017-12-27T07:07:27.237Z,5.98
2017-12-27T07:08:27.196Z,5.97
2017-12-27T07:09:27.157Z,5.97
2017-12-27T07:10:27.147Z,5.94
2017-12-27T07:11:27.082Z,5.97
2017-12-27T07:12:27.040Z,5.87
2017-12-27T07:13:27.002Z,5.84
2017-12-27T07:14:26.963Z,5.84
2017-12-27T07:15:26.941Z,5.90
2017-12-27T07:16:26.886Z,5.94
2017-12-27T07:17:26.842Z,5.93
2017-12-27T07:18:26.961Z,5.84
2017-12-27T07:19:26.767Z,5.83
2017-12-27T07:20:26.728Z,5.83
2017-12-27T07:21:26.690Z,5.86
2017-12-27T07:22:26.649Z,5.91
2017-12-27T07:23:26.607Z,5.84
2017-12-27T07:24:26.570Z,5.84
2017-12-27T07:25:26.529Z,5.80
2017-12-27T07:26:26.497Z,5.79
2017-12-27T07:27:26.452Z,5.69
2017-12-27T07:28:26.412Z,5.84
2017-12-27T07:29:26.373Z,5.71
2017-12-27T07:30:26.338Z,5.73
2017-12-27T07:31:26.294Z,5.79
2017-12-27T07:32:26.260Z,5.75
2017-12-27T07:33:26.214Z,5.71
2017-12-27T07:34:26.176Z,5.73
2017-12-27T07:35:26.135Z,5.73
2017-12-27T07:36:26.098Z,5.62
2017-12-27T07:37:26.057Z,5.72
2017-12-27T07:38:26.017Z,5.73
2017-12-27T07:39:25.980Z,5.75
2017-12-27T07:40:25.938Z,5.76
2017-12-27T07:41:25.899Z,5.65
2017-12-27T07:42:26.584Z,5.61
2017-12-27T07:43:25.818Z,5.62
2017-12-27T07:44:25.782Z,5.61
2017-12-27T07:45:25.741Z,5.61
2017-12-27T07:46:25.700Z,5.62
2017-12-27T07:47:25.664Z,5.62
2017-12-27T07:48:25.624Z,5.65
2017-12-27T07:49:25.584Z,5.65
2017-12-27T07:50:25.545Z,5.53
2017-12-27T07:51:25.506Z,5.53
2017-12-27T07:52:25.465Z,5.62
2017-12-27T07:53:25.428Z,5.64
2017-12-27T07:54:25.874Z,5.59
2017-12-27T07:55:25.347Z,5.62
2017-12-27T07:56:25.308Z,5.64
2017-12-27T07:57:25.877Z,5.59
2017-12-27T07:58:25.229Z,5.66
2017-12-27T07:59:25.193Z,5.66
2017-12-27T08:00:25.150Z,5.65
2017-12-27T08:01:25.109Z,5.59
2017-12-27T08:02:25.069Z,5.59
2017-12-27T08:03:25.030Z,5.64
2017-12-27T08:04:24.991Z,5.65
2017-12-27T08:05:24.951Z,5.61
2017-12-27T08:06:24.917Z,5.75
2017-12-27T08:07:24.871Z,5.65
2017-12-27T08:08:24.832Z,5.64
2017-12-27T08:09:24.791Z,5.68
2017-12-27T08:10:24.756Z,5.76
2017-12-27T08:11:24.713Z,5.75
2017-12-27T08:12:24.675Z,5.72
2017-12-27T08:13:24.635Z,5.76
2017-12-27T08:14:24.595Z,5.75
2017-12-27T08:15:24.554Z,5.72
2017-12-27T08:16:24.516Z,5.76
2017-12-27T08:17:24.477Z,5.79
2017-12-27T08:18:24.439Z,5.79
2017-12-27T08:19:24.397Z,5.80
2017-12-27T08:20:24.359Z,5.79
2017-12-27T08:21:24.320Z,5.79
2017-12-27T08:22:24.280Z,5.83
2017-12-27T08:23:24.240Z,5.83
2017-12-27T08:24:24.200Z,5.82
2017-12-27T08:25:24.162Z,5.83
2017-12-27T08:26:24.123Z,5.87
2017-12-27T08:27:24.083Z,5.90
2017-12-27T08:28:24.045Z,5.83
2017-12-27T08:29:24.005Z,5.84
2017-12-27T08:30:23.966Z,5.86
2017-12-27T08:31:23.926Z,5.93
2017-12-27T08:32:23.888Z,5.83
2017-12-27T08:33:23.845Z,5.87
2017-12-27T08:34:23.808Z,5.86
2017-12-27T08:35:23.767Z,5.86
2017-12-27T08:36:23.728Z,5.91
2017-12-27T08:37:23.688Z,5.97
2017-12-27T08:38:23.650Z,5.87
2017-12-27T08:39:23.612Z,5.91
2017-12-27T08:40:23.571Z,5.94
2017-12-27T08:41:23.531Z,5.86
2017-12-27T08:42:23.498Z,5.98
2017-12-27T08:43:23.472Z,5.87
2017-12-27T08:44:23.418Z,5.87
2017-12-27T08:45:23.373Z,5.89
2017-12-27T08:46:23.335Z,5.87
2017-12-27T08:47:23.296Z,5.93
2017-12-27T08:48:23.257Z,5.86
2017-12-27T08:49:23.218Z,5.90
2017-12-27T08:50:23.180Z,5.87
2017-12-27T08:51:23.140Z,5.87
2017-12-27T08:52:23.100Z,5.99
2017-12-27T08:53:23.063Z,5.83
2017-12-27T08:54:23.022Z,5.84
2017-12-27T08:55:22.981Z,5.90
2017-12-27T08:56:22.943Z,5.98
2017-12-27T08:57:22.903Z,5.89
2017-12-27T08:58:22.865Z,5.99
2017-12-27T08:59:22.824Z,5.98
2017-12-27T09:00:22.787Z,5.98
2017-12-27T09:01:22.745Z,5.89
2017-12-27T09:02:22.707Z,5.97
2017-12-27T09:03:22.668Z,5.97
2017-12-27T09:04:22.638Z,5.99
2017-12-27T09:05:22.591Z,5.86
2017-12-27T09:06:22.550Z,5.84
2017-12-27T09:07:22.512Z,5.90
2017-12-27T09:08:22.474Z,5.87
2017-12-27T09:09:22.432Z,5.80
2017-12-27T09:10:22.393Z,5.80
2017-12-27T09:11:22.357Z,5.84
2017-12-27T09:12:22.317Z,5.82
2017-12-27T09:13:22.274Z,5.82
2017-12-27T09:14:22.241Z,5.82
2017-12-27T09:15:22.200Z,5.82
2017-12-27T09:16:22.159Z,5.82
2017-12-27T09:17:22.118Z,5.84
2017-12-27T09:18:22.077Z,5.83
2017-12-27T09:19:22.040Z,5.80
2017-12-27T09:20:22.002Z,5.86
2017-12-27T09:21:21.960Z,5.84
2017-12-27T09:22:21.922Z,5.82
2017-12-27T09:23:21.884Z,5.83
2017-12-27T09:24:21.843Z,5.86
2017-12-27T09:25:21.802Z,5.80
2017-12-27T09:26:21.766Z,5.75
2017-12-27T09:27:21.725Z,5.75
2017-12-27T09:28:21.686Z,5.59
2017-12-27T09:29:21.645Z,5.69
2017-12-27T09:30:21.610Z,5.62
2017-12-27T09:31:21.569Z,5.56
2017-12-27T09:32:21.530Z,5.53
2017-12-27T09:33:21.490Z,5.47
2017-12-27T09:34:21.450Z,5.51
2017-12-27T09:35:21.411Z,5.46
2017-12-27T09:36:21.372Z,5.48
2017-12-27T09:37:21.330Z,5.32
2017-12-27T09:38:21.293Z,5.35
2017-12-27T09:39:21.252Z,5.39
2017-12-27T09:40:21.213Z,5.39
2017-12-27T09:41:21.174Z,5.35
2017-12-27T09:42:21.132Z,5.36
2017-12-27T09:43:21.092Z,5.35
2017-12-27T09:44:21.052Z,5.32
2017-12-27T09:45:21.018Z,5.30
2017-12-27T09:46:20.974Z,5.35
2017-12-27T09:47:20.936Z,5.32
2017-12-27T09:48:20.894Z,5.35
2017-12-27T09:49:20.858Z,5.30
2017-12-27T09:50:20.817Z,5.33
2017-12-27T09:51:20.777Z,5.36
2017-12-27T09:52:20.741Z,5.35
2017-12-27T09:53:20.700Z,5.36
2017-12-27T09:54:20.658Z,5.28
2017-12-27T09:55:20.618Z,5.36
2017-12-27T09:56:20.579Z,5.29
2017-12-27T09:57:20.540Z,5.32
2017-12-27T09:58:20.500Z,5.38
2017-12-27T09:59:20.460Z,5.36
2017-12-27T10:00:20.422Z,5.39
2017-12-27T10:01:20.381Z,5.38
2017-12-27T10:02:20.342Z,5.43
2017-12-27T10:03:20.303Z,5.32
2017-12-27T10:04:20.262Z,5.48
2017-12-27T10:05:20.226Z,5.50
2017-12-27T10:06:20.184Z,5.38
2017-12-27T10:07:20.145Z,5.51
2017-12-27T10:08:20.105Z,5.56
2017-12-27T10:09:20.064Z,5.50
2017-12-27T10:10:20.024Z,5.59
2017-12-27T10:11:19.985Z,5.61
2017-12-27T10:12:19.950Z,5.65
2017-12-27T10:13:19.906Z,5.65
2017-12-27T10:14:19.864Z,5.64
2017-12-27T10:15:19.828Z,5.75
2017-12-27T10:16:19.789Z,5.75
2017-12-27T10:17:19.750Z,5.84
2017-12-27T10:18:19.710Z,5.82
2017-12-27T10:19:19.669Z,5.84
2017-12-27T10:20:19.634Z,5.98
2017-12-27T10:21:19.591Z,5.93
2017-12-27T10:22:19.552Z,5.97
2017-12-27T10:23:19.513Z,6.04
2017-12-27T10:24:19.474Z,5.99
2017-12-27T10:25:19.457Z,6.08
2017-12-27T10:26:19.396Z,6.11
2017-12-27T10:27:19.358Z,6.12
2017-12-27T10:28:19.319Z,6.17
2017-12-27T10:29:19.279Z,6.22
2017-12-27T10:30:19.240Z,6.20
2017-12-27T10:31:19.202Z,6.26
2017-12-27T10:32:19.163Z,6.24
2017-12-27T10:33:19.125Z,6.30
2017-12-27T10:34:19.114Z,6.36
2017-12-27T10:35:19.044Z,6.41
2017-12-27T10:36:19.053Z,6.39
2017-12-27T10:37:19.024Z,6.39
2017-12-27T10:38:18.985Z,6.49
2017-12-27T10:39:18.928Z,6.44
2017-12-27T10:40:18.946Z,6.59
2017-12-27T10:41:18.815Z,6.69
2017-12-27T10:42:18.773Z,6.69
2017-12-27T10:43:18.760Z,6.64
2017-12-27T10:44:18.713Z,6.70
2017-12-27T10:45:18.689Z,6.72
2017-12-27T10:46:18.638Z,6.79
2017-12-27T10:47:18.615Z,6.79
2017-12-27T10:48:18.637Z,6.77
2017-12-27T10:49:18.518Z,6.88
2017-12-27T10:50:18.478Z,6.84
2017-12-27T10:51:18.491Z,6.81
2017-12-27T10:52:18.390Z,6.75
2017-12-27T10:53:18.370Z,6.85
2017-12-27T10:54:18.347Z,6.93
2017-12-27T10:55:18.353Z,6.95
2017-12-27T10:56:18.248Z,7.07
2017-12-27T10:57:18.240Z,7.13
2017-12-27T10:58:18.178Z,7.03
2017-12-27T10:59:18.171Z,7.10
2017-12-27T11:00:18.164Z,7.14
2017-12-27T11:01:18.110Z,7.07
2017-12-27T11:02:18.062Z,7.00
2017-12-27T11:03:17.981Z,7.14
2017-12-27T11:04:18.010Z,7.05
2017-12-27T11:05:17.925Z,7.13
2017-12-27T11:06:17.868Z,7.20
2017-12-27T11:07:17.867Z,7.15
2017-12-27T11:08:17.825Z,7.21
2017-12-27T11:09:17.759Z,7.21
2017-12-27T11:10:17.716Z,7.20
2017-12-27T11:11:17.693Z,7.38
2017-12-27T11:12:17.652Z,7.29
2017-12-27T11:13:17.628Z,7.36
2017-12-27T11:14:17.565Z,7.36
2017-12-27T11:15:17.519Z,7.31
2017-12-27T11:16:17.579Z,7.40
2017-12-27T11:17:17.451Z,7.43
2017-12-27T11:18:17.414Z,7.36
2017-12-27T11:19:17.438Z,7.48
2017-12-27T11:20:17.340Z,7.48
2017-12-27T11:21:17.314Z,7.38
2017-12-27T11:22:17.799Z,7.42
2017-12-27T11:23:17.236Z,7.45
2017-12-27T11:24:17.205Z,7.53
2017-12-27T11:25:17.152Z,7.45
2017-12-27T11:26:17.150Z,7.45
2017-12-27T11:27:17.111Z,7.43
2017-12-27T11:28:17.131Z,7.43
2017-12-27T11:29:17.054Z,7.43
2017-12-27T11:30:16.980Z,7.38
2017-12-27T11:31:16.929Z,7.36
2017-12-27T11:32:16.880Z,7.38
2017-12-27T11:33:16.932Z,7.36
2017-12-27T11:34:16.813Z,7.38
2017-12-27T11:35:16.774Z,7.42
2017-12-27T11:36:16.734Z,7.35
2017-12-27T11:37:16.750Z,7.36
2017-12-27T11:38:16.661Z,7.42
2017-12-27T11:39:16.622Z,7.43
2017-12-27T11:40:16.629Z,7.39
2017-12-27T11:41:16.594Z,7.50
2017-12-27T11:42:16.518Z,7.53
2017-12-27T11:43:16.501Z,7.56
2017-12-27T11:44:16.441Z,7.51
2017-12-27T11:45:16.389Z,7.56
2017-12-27T11:46:16.398Z,7.57
2017-12-27T11:47:16.315Z,7.54
2017-12-27T11:48:16.322Z,7.67
2017-12-27T11:49:16.257Z,7.66
2017-12-27T11:50:16.203Z,7.73
2017-12-27T11:51:16.189Z,7.72
2017-12-27T11:52:16.135Z,7.83
2017-12-27T11:53:16.088Z,7.85
2017-12-27T11:54:16.100Z,7.83
2017-12-27T11:55:16.026Z,7.91
2017-12-27T11:56:16.029Z,7.88
2017-12-27T11:57:15.962Z,7.94
2017-12-27T11:58:15.936Z,7.94
2017-12-27T11:59:15.886Z,7.93
2017-12-27T12:00:15.886Z,7.91
2017-12-27T12:01:15.792Z,7.91
2017-12-27T12:02:15.847Z,7.83
2017-12-27T12:03:15.725Z,7.75
2017-12-27T12:04:15.782Z,7.79
2017-12-27T12:05:15.680Z,7.77
2017-12-27T12:06:15.609Z,7.76
2017-12-27T12:07:15.574Z,7.70
2017-12-27T12:08:15.845Z,7.67
2017-12-27T12:09:15.494Z,7.67
2017-12-27T12:10:15.456Z,7.61
2017-12-27T12:11:15.435Z,7.69
2017-12-27T12:12:15.415Z,7.63
2017-12-27T12:13:15.480Z,7.70
2017-12-27T12:14:15.352Z,7.72
2017-12-27T12:15:15.298Z,7.61
2017-12-27T12:16:15.232Z,7.57
2017-12-27T12:17:15.192Z,7.67
2017-12-27T12:18:15.165Z,7.66
2017-12-27T12:19:15.132Z,7.67
2017-12-27T12:20:15.115Z,7.66
2017-12-27T12:21:15.063Z,7.75
2017-12-27T12:22:15.036Z,7.60
2017-12-27T12:23:14.984Z,7.80
2017-12-27T12:24:14.982Z,7.82
2017-12-27T12:25:14.908Z,7.85
2017-12-27T12:26:15.299Z,7.73
2017-12-27T12:27:14.836Z,7.80
2017-12-27T12:28:14.827Z,7.80
2017-12-27T12:29:14.839Z,7.88
2017-12-27T12:30:14.725Z,7.93
2017-12-27T12:31:14.735Z,7.94
2017-12-27T12:32:14.637Z,7.93
2017-12-27T12:33:15.499Z,7.88
2017-12-27T12:34:14.566Z,7.94
2017-12-27T12:35:14.528Z,7.93
2017-12-27T12:36:14.519Z,7.95
2017-12-27T12:37:14.464Z,8.03
2017-12-27T12:38:14.417Z,7.98
2017-12-27T12:39:14.391Z,8.05
2017-12-27T12:40:14.329Z,8.10
2017-12-27T12:41:14.298Z,8.08
2017-12-27T12:42:14.274Z,8.16
2017-12-27T12:43:14.264Z,8.19
2017-12-27T12:44:14.247Z,8.16
2017-12-27T12:45:14.141Z,8.23
2017-12-27T12:46:14.164Z,8.27
2017-12-27T12:47:14.088Z,8.41
2017-12-27T12:48:14.040Z,8.41
2017-12-27T12:49:14.030Z,8.37
2017-12-27T12:50:13.954Z,8.36
2017-12-27T12:51:13.945Z,8.48
2017-12-27T12:52:13.886Z,8.49
2017-12-27T12:53:13.847Z,8.52
2017-12-27T12:54:13.809Z,8.61
2017-12-27T12:55:13.804Z,8.70
2017-12-27T12:56:13.750Z,8.69
2017-12-27T12:57:13.699Z,8.70
2017-12-27T12:58:13.712Z,8.81
2017-12-27T12:59:13.670Z,8.70
2017-12-27T13:00:13.591Z,8.70
2017-12-27T13:01:13.587Z,8.78
2017-12-27T13:02:13.524Z,8.73
2017-12-27T13:03:13.514Z,8.67
2017-12-27T13:04:13.525Z,8.70
2017-12-27T13:05:13.416Z,8.70
2017-12-27T13:06:13.370Z,8.58
2017-12-27T13:07:13.335Z,8.55
2017-12-27T13:08:13.298Z,8.45
2017-12-27T13:09:13.263Z,8.36
2017-12-27T13:10:13.224Z,8.33
2017-12-27T13:11:13.187Z,8.28
2017-12-27T13:12:13.151Z,8.26
2017-12-27T13:13:13.113Z,8.18
2017-12-27T13:14:13.077Z,8.12
2017-12-27T13:15:13.046Z,8.12
2017-12-27T13:16:13.006Z,8.08
2017-12-27T13:17:12.965Z,8.10
2017-12-27T13:18:13.249Z,8.06